sensor_id;sensor_type;location;lat;lon;timestamp;P1;durP1;ratioP1;P2;durP2;ratioP2
77736;SDS011;66903;59.926;30.404;2023-08-31T00:00:34;2.58;;;1.00;;
77736;SDS011;66903;59.926;30.404;2023-08-31T00:05:40;4.03;;;1.05;;
77736;SDS011;66903;59.926;30.404;2023-08-31T00:10:41;3.05;;;1.10;;
77736;SDS011;66903;59.926;30.404;2023-08-31T00:15:42;3.30;;;1.02;;
77736;SDS011;66903;59.926;30.404;2023-08-31T00:20:42;3.80;;;1.42;;
77736;SDS011;66903;59.926;30.404;2023-08-31T00:25:43;2.45;;;1.02;;
77736;SDS011;66903;59.926;30.404;2023-08-31T00:30:44;3.38;;;1.38;;
77736;SDS011;66903;59.926;30.404;2023-08-31T00:35:44;3.40;;;1.10;;
77736;SDS011;66903;59.926;30.404;2023-08-31T00:40:48;3.17;;;1.25;;
77736;SDS011;66903;59.926;30.404;2023-08-31T00:45:49;3.85;;;1.40;;
77736;SDS011;66903;59.926;30.404;2023-08-31T00:50:57;4.13;;;1.48;;
77736;SDS011;66903;59.926;30.404;2023-08-31T00:55:57;6.05;;;1.80;;
77736;SDS011;66903;59.926;30.404;2023-08-31T01:06:50;6.15;;;1.63;;
77736;SDS011;66903;59.926;30.404;2023-08-31T01:16:56;3.60;;;1.40;;
77736;SDS011;66903;59.926;30.404;2023-08-31T01:22:00;5.57;;;1.70;;
77736;SDS011;66903;59.926;30.404;2023-08-31T01:27:05;4.38;;;1.63;;
77736;SDS011;66903;59.926;30.404;2023-08-31T01:32:06;6.53;;;2.05;;
77736;SDS011;66903;59.926;30.404;2023-08-31T01:37:12;5.45;;;1.90;;
77736;SDS011;66903;59.926;30.404;2023-08-31T01:42:17;7.65;;;2.70;;
77736;SDS011;66903;59.926;30.404;2023-08-31T01:47:17;6.45;;;2.13;;
77736;SDS011;66903;59.926;30.404;2023-08-31T01:52:19;4.15;;;1.48;;
77736;SDS011;66903;59.926;30.404;2023-08-31T01:57:20;7.45;;;2.22;;
77736;SDS011;66903;59.926;30.404;2023-08-31T02:02:20;6.03;;;2.40;;
77736;SDS011;66903;59.926;30.404;2023-08-31T02:07:21;7.43;;;2.25;;
77736;SDS011;66903;59.926;30.404;2023-08-31T02:12:21;4.93;;;1.95;;
77736;SDS011;66903;59.926;30.404;2023-08-31T02:17:22;7.80;;;2.85;;
77736;SDS011;66903;59.926;30.404;2023-08-31T02:22:23;8.13;;;2.55;;
77736;SDS011;66903;59.926;30.404;2023-08-31T02:27:23;6.13;;;2.40;;
77736;SDS011;66903;59.926;30.404;2023-08-31T02:32:24;7.05;;;2.30;;
77736;SDS011;66903;59.926;30.404;2023-08-31T02:37:25;5.68;;;2.17;;
77736;SDS011;66903;59.926;30.404;2023-08-31T02:42:25;6.38;;;1.90;;
77736;SDS011;66903;59.926;30.404;2023-08-31T02:47:26;5.47;;;2.10;;
77736;SDS011;66903;59.926;30.404;2023-08-31T02:52:26;5.35;;;1.58;;
77736;SDS011;66903;59.926;30.404;2023-08-31T02:57:27;4.95;;;1.63;;
77736;SDS011;66903;59.926;30.404;2023-08-31T03:02:27;5.53;;;2.00;;
77736;SDS011;66903;59.926;30.404;2023-08-31T03:07:28;5.40;;;1.95;;
77736;SDS011;66903;59.926;30.404;2023-08-31T03:12:29;4.72;;;1.88;;
77736;SDS011;66903;59.926;30.404;2023-08-31T03:17:30;4.75;;;1.75;;
77736;SDS011;66903;59.926;30.404;2023-08-31T03:22:31;3.72;;;1.45;;
77736;SDS011;66903;59.926;30.404;2023-08-31T03:27:32;4.53;;;1.75;;
77736;SDS011;66903;59.926;30.404;2023-08-31T03:32:33;4.00;;;1.80;;
77736;SDS011;66903;59.926;30.404;2023-08-31T03:37:33;4.60;;;1.80;;
77736;SDS011;66903;59.926;30.404;2023-08-31T03:42:34;4.78;;;2.00;;
77736;SDS011;66903;59.926;30.404;2023-08-31T03:47:35;6.00;;;1.95;;
77736;SDS011;66903;59.926;30.404;2023-08-31T03:52:35;7.13;;;2.65;;
77736;SDS011;66903;59.926;30.404;2023-08-31T03:57:36;6.15;;;2.10;;
77736;SDS011;66903;59.926;30.404;2023-08-31T04:02:37;4.90;;;2.03;;
77736;SDS011;66903;59.926;30.404;2023-08-31T04:07:37;4.97;;;2.00;;
77736;SDS011;66903;59.926;30.404;2023-08-31T04:12:38;5.18;;;2.17;;
77736;SDS011;66903;59.926;30.404;2023-08-31T04:17:39;5.10;;;1.63;;
77736;SDS011;66903;59.926;30.404;2023-08-31T04:22:40;4.97;;;2.10;;
77736;SDS011;66903;59.926;30.404;2023-08-31T04:27:40;6.72;;;2.10;;
77736;SDS011;66903;59.926;30.404;2023-08-31T04:32:41;5.40;;;2.00;;
77736;SDS011;66903;59.926;30.404;2023-08-31T04:37:42;6.45;;;2.45;;
77736;SDS011;66903;59.926;30.404;2023-08-31T04:42:42;6.43;;;2.58;;
77736;SDS011;66903;59.926;30.404;2023-08-31T04:47:44;6.90;;;2.38;;
77736;SDS011;66903;59.926;30.404;2023-08-31T04:52:44;5.32;;;1.80;;
77736;SDS011;66903;59.926;30.404;2023-08-31T04:57:45;4.88;;;1.83;;
77736;SDS011;66903;59.926;30.404;2023-08-31T05:02:45;5.53;;;1.92;;
77736;SDS011;66903;59.926;30.404;2023-08-31T05:07:46;4.90;;;1.95;;
77736;SDS011;66903;59.926;30.404;2023-08-31T05:12:46;4.40;;;1.80;;
77736;SDS011;66903;59.926;30.404;2023-08-31T05:17:47;5.60;;;1.92;;
77736;SDS011;66903;59.926;30.404;2023-08-31T05:22:48;4.25;;;1.70;;
77736;SDS011;66903;59.926;30.404;2023-08-31T05:27:49;5.88;;;1.65;;
77736;SDS011;66903;59.926;30.404;2023-08-31T05:32:49;5.40;;;1.48;;
77736;SDS011;66903;59.926;30.404;2023-08-31T05:37:50;6.15;;;1.98;;
77736;SDS011;66903;59.926;30.404;2023-08-31T16:56:24;23.08;;;9.25;;
77736;SDS011;66903;59.926;30.404;2023-08-31T17:01:25;15.20;;;7.22;;
77736;SDS011;66903;59.926;30.404;2023-08-31T17:06:25;12.48;;;5.35;;
77736;SDS011;66903;59.926;30.404;2023-08-31T17:11:26;14.05;;;6.72;;
77736;SDS011;66903;59.926;30.404;2023-08-31T17:16:27;12.35;;;5.80;;
77736;SDS011;66903;59.926;30.404;2023-08-31T17:21:28;11.77;;;5.05;;
77736;SDS011;66903;59.926;30.404;2023-08-31T17:26:28;10.02;;;4.32;;
77736;SDS011;66903;59.926;30.404;2023-08-31T17:31:29;7.88;;;3.83;;
77736;SDS011;66903;59.926;30.404;2023-08-31T17:36:30;12.07;;;4.35;;
77736;SDS011;66903;59.926;30.404;2023-08-31T17:41:31;7.35;;;3.92;;
77736;SDS011;66903;59.926;30.404;2023-08-31T17:46:31;10.30;;;3.42;;
77736;SDS011;66903;59.926;30.404;2023-08-31T17:51:32;7.75;;;3.63;;
77736;SDS011;66903;59.926;30.404;2023-08-31T17:56:33;6.57;;;2.70;;
77736;SDS011;66903;59.926;30.404;2023-08-31T18:01:33;6.03;;;2.75;;
77736;SDS011;66903;59.926;30.404;2023-08-31T18:06:34;7.00;;;2.45;;
77736;SDS011;66903;59.926;30.404;2023-08-31T18:11:36;6.13;;;2.70;;
77736;SDS011;66903;59.926;30.404;2023-08-31T18:16:37;6.53;;;2.80;;
77736;SDS011;66903;59.926;30.404;2023-08-31T18:21:37;10.65;;;3.13;;
77736;SDS011;66903;59.926;30.404;2023-08-31T18:26:38;5.72;;;2.08;;
77736;SDS011;66903;59.926;30.404;2023-08-31T18:31:39;4.75;;;2.10;;
77736;SDS011;66903;59.926;30.404;2023-08-31T18:36:41;8.18;;;2.70;;
77736;SDS011;66903;59.926;30.404;2023-08-31T18:41:42;4.72;;;2.20;;
77736;SDS011;66903;59.926;30.404;2023-08-31T18:46:43;5.30;;;2.13;;
77736;SDS011;66903;59.926;30.404;2023-08-31T18:51:43;6.80;;;2.50;;
77736;SDS011;66903;59.926;30.404;2023-08-31T18:56:45;5.78;;;2.20;;
77736;SDS011;66903;59.926;30.404;2023-08-31T19:01:45;5.40;;;2.47;;
77736;SDS011;66903;59.926;30.404;2023-08-31T19:06:46;6.25;;;2.45;;
77736;SDS011;66903;59.926;30.404;2023-08-31T19:11:46;7.90;;;3.22;;
77736;SDS011;66903;59.926;30.404;2023-08-31T19:16:47;7.25;;;2.40;;
77736;SDS011;66903;59.926;30.404;2023-08-31T19:21:50;5.75;;;2.70;;
77736;SDS011;66903;59.926;30.404;2023-08-31T19:26:50;5.63;;;2.45;;
77736;SDS011;66903;59.926;30.404;2023-08-31T19:31:51;5.63;;;2.25;;
77736;SDS011;66903;59.926;30.404;2023-08-31T19:36:53;6.90;;;3.05;;
77736;SDS011;66903;59.926;30.404;2023-08-31T19:41:54;6.43;;;2.47;;
77736;SDS011;66903;59.926;30.404;2023-08-31T19:46:54;5.90;;;2.80;;
77736;SDS011;66903;59.926;30.404;2023-08-31T19:51:55;6.93;;;2.63;;
77736;SDS011;66903;59.926;30.404;2023-08-31T19:56:55;6.53;;;2.70;;
77736;SDS011;66903;59.926;30.404;2023-08-31T20:01:56;8.88;;;2.67;;
77736;SDS011;66903;59.926;30.404;2023-08-31T20:06:57;6.30;;;3.20;;
77736;SDS011;66903;59.926;30.404;2023-08-31T20:11:57;5.10;;;2.67;;
77736;SDS011;66903;59.926;30.404;2023-08-31T20:17:01;5.20;;;2.28;;
77736;SDS011;66903;59.926;30.404;2023-08-31T20:22:03;7.15;;;3.00;;
77736;SDS011;66903;59.926;30.404;2023-08-31T20:27:04;6.35;;;2.72;;
77736;SDS011;66903;59.926;30.404;2023-08-31T20:32:05;7.95;;;3.15;;
77736;SDS011;66903;59.926;30.404;2023-08-31T20:37:07;11.45;;;3.63;;
77736;SDS011;66903;59.926;30.404;2023-08-31T20:42:08;8.23;;;3.50;;
77736;SDS011;66903;59.926;30.404;2023-08-31T20:47:08;9.57;;;4.78;;
77736;SDS011;66903;59.926;30.404;2023-08-31T20:52:09;9.88;;;4.18;;
77736;SDS011;66903;59.926;30.404;2023-08-31T20:57:09;7.13;;;3.63;;
77736;SDS011;66903;59.926;30.404;2023-08-31T21:02:10;9.25;;;4.47;;
77736;SDS011;66903;59.926;30.404;2023-08-31T21:07:10;7.82;;;4.05;;
77736;SDS011;66903;59.926;30.404;2023-08-31T21:12:11;8.55;;;4.53;;
77736;SDS011;66903;59.926;30.404;2023-08-31T21:17:13;11.45;;;4.63;;
77736;SDS011;66903;59.926;30.404;2023-08-31T21:22:13;12.18;;;5.47;;
77736;SDS011;66903;59.926;30.404;2023-08-31T21:27:14;8.05;;;4.40;;
77736;SDS011;66903;59.926;30.404;2023-08-31T21:32:14;9.10;;;4.38;;
77736;SDS011;66903;59.926;30.404;2023-08-31T21:37:15;12.00;;;4.35;;
77736;SDS011;66903;59.926;30.404;2023-08-31T21:42:15;7.28;;;4.07;;
77736;SDS011;66903;59.926;30.404;2023-08-31T21:47:16;7.93;;;3.35;;
77736;SDS011;66903;59.926;30.404;2023-08-31T21:52:16;7.97;;;3.67;;
77736;SDS011;66903;59.926;30.404;2023-08-31T21:57:17;7.53;;;3.33;;
77736;SDS011;66903;59.926;30.404;2023-08-31T22:02:17;6.55;;;2.72;;
77736;SDS011;66903;59.926;30.404;2023-08-31T22:07:18;6.00;;;3.28;;
77736;SDS011;66903;59.926;30.404;2023-08-31T22:12:22;7.90;;;2.92;;
77736;SDS011;66903;59.926;30.404;2023-08-31T22:17:24;7.13;;;3.45;;
77736;SDS011;66903;59.926;30.404;2023-08-31T22:22:24;7.13;;;3.13;;
77736;SDS011;66903;59.926;30.404;2023-08-31T22:27:25;7.57;;;3.35;;
77736;SDS011;66903;59.926;30.404;2023-08-31T22:32:25;6.88;;;3.35;;
77736;SDS011;66903;59.926;30.404;2023-08-31T22:37:26;5.50;;;2.83;;
77736;SDS011;66903;59.926;30.404;2023-08-31T22:42:26;6.38;;;3.10;;
77736;SDS011;66903;59.926;30.404;2023-08-31T22:47:27;6.70;;;3.28;;
77736;SDS011;66903;59.926;30.404;2023-08-31T22:52:28;6.80;;;3.28;;
77736;SDS011;66903;59.926;30.404;2023-08-31T22:57:28;7.00;;;3.70;;
77736;SDS011;66903;59.926;30.404;2023-08-31T23:02:29;8.98;;;3.70;;
77736;SDS011;66903;59.926;30.404;2023-08-31T23:07:29;8.40;;;4.20;;
77736;SDS011;66903;59.926;30.404;2023-08-31T23:12:30;8.15;;;3.60;;
77736;SDS011;66903;59.926;30.404;2023-08-31T23:17:31;6.82;;;3.63;;
77736;SDS011;66903;59.926;30.404;2023-08-31T23:22:31;7.28;;;3.67;;
77736;SDS011;66903;59.926;30.404;2023-08-31T23:27:32;6.60;;;3.35;;
77736;SDS011;66903;59.926;30.404;2023-08-31T23:32:32;6.78;;;3.47;;
77736;SDS011;66903;59.926;30.404;2023-08-31T23:37:33;6.18;;;3.75;;
77736;SDS011;66903;59.926;30.404;2023-08-31T23:42:33;7.03;;;3.90;;
77736;SDS011;66903;59.926;30.404;2023-08-31T23:47:34;6.93;;;3.63;;
77736;SDS011;66903;59.926;30.404;2023-08-31T23:52:35;7.75;;;3.55;;
77736;SDS011;66903;59.926;30.404;2023-08-31T23:57:35;7.93;;;3.60;;
